sensor_id;sensor_type;location;lat;lon;timestamp;pressure;altitude;pressure_sealevel;temperature;humidity
70781;BME280;59514;48.810;2.134;2023-03-22T00:01:44;99916.25;;;9.69;100.00
70781;BME280;59514;48.810;2.134;2023-03-22T00:04:13;99915.69;;;9.67;100.00
70781;BME280;59514;48.810;2.134;2023-03-22T00:06:38;99914.97;;;9.60;100.00
70781;BME280;59514;48.810;2.134;2023-03-22T00:09:03;99913.31;;;9.58;100.00
70781;BME280;59514;48.810;2.134;2023-03-22T00:11:29;99913.78;;;9.55;100.00
70781;BME280;59514;48.810;2.134;2023-03-22T00:13:54;99907.38;;;9.56;100.00
70781;BME280;59514;48.810;2.134;2023-03-22T00:16:20;99910.06;;;9.56;100.00
70781;BME280;59514;48.810;2.134;2023-03-22T00:18:46;99902.59;;;9.58;100.00
70781;BME280;59514;48.810;2.134;2023-03-22T00:21:15;99900.63;;;9.54;100.00
70781;BME280;59514;48.810;2.134;2023-03-22T00:23:41;99888.50;;;9.51;100.00
70781;BME280;59514;48.810;2.134;2023-03-22T00:26:09;99894.91;;;9.50;100.00
70781;BME280;59514;48.810;2.134;2023-03-22T00:28:35;99883.59;;;9.48;100.00
70781;BME280;59514;48.810;2.134;2023-03-22T00:31:01;99881.38;;;9.45;100.00
70781;BME280;59514;48.810;2.134;2023-03-22T00:33:28;99882.41;;;9.44;100.00
70781;BME280;59514;48.810;2.134;2023-03-22T00:35:58;99880.22;;;9.41;100.00
70781;BME280;59514;48.810;2.134;2023-03-22T00:38:24;99882.28;;;9.39;100.00
70781;BME280;59514;48.810;2.134;2023-03-22T00:40:50;99872.06;;;9.36;100.00
70781;BME280;59514;48.810;2.134;2023-03-22T00:43:15;99869.13;;;9.38;100.00
70781;BME280;59514;48.810;2.134;2023-03-22T00:45:41;99874.03;;;9.41;100.00
70781;BME280;59514;48.810;2.134;2023-03-22T00:48:08;99865.63;;;9.37;100.00
70781;BME280;59514;48.810;2.134;2023-03-22T00:50:33;99866.69;;;9.36;100.00
70781;BME280;59514;48.810;2.134;2023-03-22T00:52:59;99859.09;;;9.33;100.00
70781;BME280;59514;48.810;2.134;2023-03-22T00:55:24;99861.78;;;9.33;100.00
70781;BME280;59514;48.810;2.134;2023-03-22T00:57:50;99866.69;;;9.36;100.00
70781;BME280;59514;48.810;2.134;2023-03-22T01:00:15;99860.59;;;9.29;100.00
70781;BME280;59514;48.810;2.134;2023-03-22T01:02:42;99849.31;;;9.27;100.00
70781;BME280;59514;48.810;2.134;2023-03-22T01:05:08;99856.97;;;9.24;100.00
70781;BME280;59514;48.810;2.134;2023-03-22T01:07:34;99851.28;;;9.20;100.00
70781;BME280;59514;48.810;2.134;2023-03-22T01:10:04;99852.78;;;9.16;100.00
70781;BME280;59514;48.810;2.134;2023-03-22T01:12:29;99842.28;;;9.15;100.00
70781;BME280;59514;48.810;2.134;2023-03-22T01:14:55;99827.69;;;9.11;100.00
70781;BME280;59514;48.810;2.134;2023-03-22T01:17:20;99830.19;;;9.12;100.00
70781;BME280;59514;48.810;2.134;2023-03-22T01:19:46;99830.38;;;9.11;100.00
70781;BME280;59514;48.810;2.134;2023-03-22T01:22:11;99817.47;;;9.08;100.00
70781;BME280;59514;48.810;2.134;2023-03-22T01:24:36;99817.47;;;9.08;100.00
70781;BME280;59514;48.810;2.134;2023-03-22T01:27:02;99815.03;;;9.06;100.00
70781;BME280;59514;48.810;2.134;2023-03-22T01:29:27;99797.91;;;9.07;100.00
70781;BME280;59514;48.810;2.134;2023-03-22T01:31:52;99801.63;;;9.06;100.00
70781;BME280;59514;48.810;2.134;2023-03-22T01:34:18;99787.66;;;9.04;100.00
70781;BME280;59514;48.810;2.134;2023-03-22T01:36:43;99795.91;;;9.03;100.00
70781;BME280;59514;48.810;2.134;2023-03-22T01:39:08;99791.38;;;9.03;100.00
70781;BME280;59514;48.810;2.134;2023-03-22T01:41:35;99798.38;;;9.04;100.00
70781;BME280;59514;48.810;2.134;2023-03-22T01:46:40;99783.56;;;9.02;100.00
70781;BME280;59514;48.810;2.134;2023-03-22T01:49:31;99780.78;;;8.97;100.00
70781;BME280;59514;48.810;2.134;2023-03-22T01:51:59;99783.66;;;8.95;100.00
70781;BME280;59514;48.810;2.134;2023-03-22T01:54:46;99766.81;;;8.95;100.00
70781;BME280;59514;48.810;2.134;2023-03-22T01:57:12;99770.97;;;8.91;100.00
70781;BME280;59514;48.810;2.134;2023-03-22T01:59:38;99754.34;;;8.89;100.00
70781;BME280;59514;48.810;2.134;2023-03-22T02:02:05;99753.75;;;8.87;100.00
70781;BME280;59514;48.810;2.134;2023-03-22T02:04:33;99751.28;;;8.85;100.00
70781;BME280;59514;48.810;2.134;2023-03-22T02:07:06;99736.72;;;8.81;100.00
70781;BME280;59514;48.810;2.134;2023-03-22T02:09:37;99740.88;;;8.77;100.00
70781;BME280;59514;48.810;2.134;2023-03-22T02:12:30;99741.38;;;8.74;100.00
70781;BME280;59514;48.810;2.134;2023-03-22T02:18:36;99730.50;;;8.69;100.00
70781;BME280;59514;48.810;2.134;2023-03-22T02:21:42;99724.81;;;8.65;100.00
70781;BME280;59514;48.810;2.134;2023-03-22T02:29:45;99726.53;;;8.60;100.00
70781;BME280;59514;48.810;2.134;2023-03-22T02:35:17;99718.16;;;8.56;100.00
70781;BME280;59514;48.810;2.134;2023-03-22T02:38:08;99717.09;;;8.57;100.00
70781;BME280;59514;48.810;2.134;2023-03-22T02:43:45;99729.69;;;8.57;100.00
70781;BME280;59514;48.810;2.134;2023-03-22T02:46:40;99737.13;;;8.55;100.00
70781;BME280;59514;48.810;2.134;2023-03-22T02:49:36;99735.59;;;8.59;100.00
70781;BME280;59514;48.810;2.134;2023-03-22T02:52:14;99733.50;;;8.61;100.00
70781;BME280;59514;48.810;2.134;2023-03-22T02:54:49;99734.69;;;8.65;100.00
70781;BME280;59514;48.810;2.134;2023-03-22T02:57:26;99727.03;;;8.68;100.00
70781;BME280;59514;48.810;2.134;2023-03-22T02:59:53;99731.69;;;8.73;100.00
70781;BME280;59514;48.810;2.134;2023-03-22T03:02:21;99750.56;;;8.78;100.00
70781;BME280;59514;48.810;2.134;2023-03-22T03:04:48;99737.41;;;8.77;100.00
70781;BME280;59514;48.810;2.134;2023-03-22T03:07:18;99741.47;;;8.79;100.00
70781;BME280;59514;48.810;2.134;2023-03-22T03:09:46;99745.34;;;8.83;100.00
70781;BME280;59514;48.810;2.134;2023-03-22T03:12:14;99729.28;;;8.83;100.00
70781;BME280;59514;48.810;2.134;2023-03-22T03:14:43;99724.06;;;8.88;100.00
70781;BME280;59514;48.810;2.134;2023-03-22T03:25:44;99732.22;;;8.93;100.00
70781;BME280;59514;48.810;2.134;2023-03-22T03:31:29;99723.16;;;8.94;100.00
70781;BME280;59514;48.810;2.134;2023-03-22T03:36:33;99719.41;;;8.95;100.00
70781;BME280;59514;48.810;2.134;2023-03-22T03:39:03;99721.06;;;8.96;100.00
70781;BME280;59514;48.810;2.134;2023-03-22T03:41:32;99708.25;;;8.98;100.00
70781;BME280;59514;48.810;2.134;2023-03-22T03:43:59;99719.78;;;8.99;100.00
70781;BME280;59514;48.810;2.134;2023-03-22T03:46:24;99712.34;;;9.01;100.00
70781;BME280;59514;48.810;2.134;2023-03-22T03:48:51;99718.50;;;9.01;100.00
70781;BME280;59514;48.810;2.134;2023-03-22T03:51:17;99714.78;;;9.02;100.00
70781;BME280;59514;48.810;2.134;2023-03-22T03:53:43;99714.88;;;9.07;100.00
70781;BME280;59514;48.810;2.134;2023-03-22T03:56:08;99719.22;;;9.08;100.00
70781;BME280;59514;48.810;2.134;2023-03-22T03:58:34;99715.47;;;9.09;100.00
70781;BME280;59514;48.810;2.134;2023-03-22T04:00:59;99725.75;;;9.12;100.00
70781;BME280;59514;48.810;2.134;2023-03-22T04:03:24;99734.13;;;9.16;100.00
70781;BME280;59514;48.810;2.134;2023-03-22T04:05:50;99716.19;;;9.16;100.00
70781;BME280;59514;48.810;2.134;2023-03-22T04:08:15;99725.03;;;9.17;100.00
70781;BME280;59514;48.810;2.134;2023-03-22T04:10:40;99726.91;;;9.16;100.00
70781;BME280;59514;48.810;2.134;2023-03-22T04:13:06;99736.09;;;9.20;100.00
70781;BME280;59514;48.810;2.134;2023-03-22T04:15:31;99703.16;;;9.20;100.00
70781;BME280;59514;48.810;2.134;2023-03-22T04:17:57;99713.63;;;9.21;100.00
70781;BME280;59514;48.810;2.134;2023-03-22T04:20:23;99711.53;;;9.23;100.00
70781;BME280;59514;48.810;2.134;2023-03-22T04:22:50;99721.41;;;9.23;100.00
70781;BME280;59514;48.810;2.134;2023-03-22T04:25:17;99710.03;;;9.27;100.00
70781;BME280;59514;48.810;2.134;2023-03-22T04:27:45;99706.31;;;9.28;100.00
70781;BME280;59514;48.810;2.134;2023-03-22T04:30:15;99693.50;;;9.30;100.00
70781;BME280;59514;48.810;2.134;2023-03-22T04:32:45;99698.03;;;9.30;100.00
70781;BME280;59514;48.810;2.134;2023-03-22T04:35:11;99699.31;;;9.27;100.00
70781;BME280;59514;48.810;2.134;2023-03-22T04:37:37;99699.53;;;9.26;100.00
70781;BME280;59514;48.810;2.134;2023-03-22T04:40:02;99718.06;;;9.27;100.00
70781;BME280;59514;48.810;2.134;2023-03-22T04:42:31;99707.00;;;9.24;100.00
70781;BME280;59514;48.810;2.134;2023-03-22T04:44:57;99703.72;;;9.22;100.00
70781;BME280;59514;48.810;2.134;2023-03-22T04:47:22;99699.19;;;9.22;100.00
70781;BME280;59514;48.810;2.134;2023-03-22T04:49:47;99704.19;;;9.19;100.00
70781;BME280;59514;48.810;2.134;2023-03-22T04:52:13;99709.19;;;9.15;100.00
70781;BME280;59514;48.810;2.134;2023-03-22T04:54:38;99720.72;;;9.16;100.00
70781;BME280;59514;48.810;2.134;2023-03-22T04:57:04;99702.44;;;9.13;100.00
70781;BME280;59514;48.810;2.134;2023-03-22T04:59:29;99693.03;;;9.10;100.00
70781;BME280;59514;48.810;2.134;2023-03-22T05:01:54;99692.44;;;9.08;100.00
70781;BME280;59514;48.810;2.134;2023-03-22T05:04:20;99683.81;;;9.06;100.00
70781;BME280;59514;48.810;2.134;2023-03-22T05:06:46;99684.97;;;9.10;100.00
70781;BME280;59514;48.810;2.134;2023-03-22T05:09:11;99683.34;;;9.09;100.00
70781;BME280;59514;48.810;2.134;2023-03-22T05:11:37;99681.25;;;9.11;100.00
70781;BME280;59514;48.810;2.134;2023-03-22T05:14:03;99679.38;;;9.12;100.00
70781;BME280;59514;48.810;2.134;2023-03-22T05:16:28;99697.31;;;9.11;100.00
70781;BME280;59514;48.810;2.134;2023-03-22T05:18:54;99683.69;;;9.13;100.00
70781;BME280;59514;48.810;2.134;2023-03-22T05:21:21;99689.88;;;9.13;100.00
70781;BME280;59514;48.810;2.134;2023-03-22T05:23:53;99679.72;;;9.15;100.00
70781;BME280;59514;48.810;2.134;2023-03-22T05:26:19;99679.72;;;9.15;100.00
70781;BME280;59514;48.810;2.134;2023-03-22T05:28:44;99684.84;;;9.17;100.00
70781;BME280;59514;48.810;2.134;2023-03-22T05:31:10;99679.72;;;9.15;100.00
70781;BME280;59514;48.810;2.134;2023-03-22T05:33:38;99683.22;;;9.16;100.00
70781;BME280;59514;48.810;2.134;2023-03-22T05:36:06;99682.16;;;9.17;100.00
70781;BME280;59514;48.810;2.134;2023-03-22T05:38:31;99682.16;;;9.17;100.00
70781;BME280;59514;48.810;2.134;2023-03-22T05:40:56;99688.59;;;9.16;100.00
70781;BME280;59514;48.810;2.134;2023-03-22T05:43:22;99705.47;;;9.16;100.00
70781;BME280;59514;48.810;2.134;2023-03-22T05:45:47;99690.22;;;9.17;100.00
70781;BME280;59514;48.810;2.134;2023-03-22T05:48:13;99703.38;;;9.18;100.00
70781;BME280;59514;48.810;2.134;2023-03-22T05:50:39;99676.59;;;9.18;100.00
70781;BME280;59514;48.810;2.134;2023-03-22T05:53:05;99680.06;;;9.19;100.00
70781;BME280;59514;48.810;2.134;2023-03-22T05:55:30;99673.94;;;9.18;100.00
70781;BME280;59514;48.810;2.134;2023-03-22T05:57:59;99669.94;;;9.21;100.00
70781;BME280;59514;48.810;2.134;2023-03-22T06:00:27;99673.69;;;9.20;100.00
70781;BME280;59514;48.810;2.134;2023-03-22T06:02:57;99681.97;;;9.18;100.00
70781;BME280;59514;48.810;2.134;2023-03-22T06:05:27;99668.56;;;9.18;100.00
70781;BME280;59514;48.810;2.134;2023-03-22T06:07:52;99670.66;;;9.16;100.00
70781;BME280;59514;48.810;2.134;2023-03-22T06:10:18;99669.59;;;9.17;100.00
70781;BME280;59514;48.810;2.134;2023-03-22T06:12:43;99665.06;;;9.18;100.00
70781;BME280;59514;48.810;2.134;2023-03-22T06:15:09;99665.66;;;9.20;100.00
70781;BME280;59514;48.810;2.134;2023-03-22T06:17:35;99665.91;;;9.18;100.00
70781;BME280;59514;48.810;2.134;2023-03-22T06:20:02;99668.34;;;9.20;100.00
70781;BME280;59514;48.810;2.134;2023-03-22T06:22:33;99660.31;;;9.20;100.00
70781;BME280;59514;48.810;2.134;2023-03-22T06:24:59;99681.47;;;9.21;100.00
70781;BME280;59514;48.810;2.134;2023-03-22T06:27:25;99676.13;;;9.21;100.00
70781;BME280;59514;48.810;2.134;2023-03-22T06:29:50;99686.03;;;9.21;100.00
70781;BME280;59514;48.810;2.134;2023-03-22T06:32:18;99686.38;;;9.24;100.00
70781;BME280;59514;48.810;2.134;2023-03-22T06:34:47;99702.47;;;9.24;100.00
70781;BME280;59514;48.810;2.134;2023-03-22T06:37:13;99705.94;;;9.25;100.00
70781;BME280;59514;48.810;2.134;2023-03-22T06:39:38;99693.38;;;9.25;100.00
70781;BME280;59514;48.810;2.134;2023-03-22T06:42:03;99720.72;;;9.27;100.00
70781;BME280;59514;48.810;2.134;2023-03-22T06:44:29;99712.84;;;9.32;100.00
70781;BME280;59514;48.810;2.134;2023-03-22T06:46:55;99708.50;;;9.31;100.00
70781;BME280;59514;48.810;2.134;2023-03-22T06:49:20;99732.63;;;9.31;100.00
70781;BME280;59514;48.810;2.134;2023-03-22T06:51:46;99735.06;;;9.33;100.00
70781;BME280;59514;48.810;2.134;2023-03-22T06:54:11;99735.19;;;9.38;100.00
70781;BME280;59514;48.810;2.134;2023-03-22T06:56:37;99729.13;;;9.42;100.00
70781;BME280;59514;48.810;2.134;2023-03-22T06:59:02;99725.97;;;9.45;100.00
70781;BME280;59514;48.810;2.134;2023-03-22T07:01:28;99744.03;;;9.50;100.00
70781;BME280;59514;48.810;2.134;2023-03-22T07:03:53;99734.13;;;9.50;100.00
70781;BME280;59514;48.810;2.134;2023-03-22T07:06:19;99730.84;;;9.48;100.00
70781;BME280;59514;48.810;2.134;2023-03-22T07:08:44;99737.88;;;9.49;100.00
70781;BME280;59514;48.810;2.134;2023-03-22T07:11:10;99751.25;;;9.49;100.00
70781;BME280;59514;48.810;2.134;2023-03-22T07:13:35;99726.91;;;9.51;100.00
70781;BME280;59514;48.810;2.134;2023-03-22T07:16:01;99729.94;;;9.54;100.00
70781;BME280;59514;48.810;2.134;2023-03-22T07:18:27;99732.59;;;9.54;100.00
70781;BME280;59514;48.810;2.134;2023-03-22T07:20:52;99728.66;;;9.57;100.00
70781;BME280;59514;48.810;2.134;2023-03-22T07:23:18;99725.84;;;9.64;100.00
70781;BME280;59514;48.810;2.134;2023-03-22T07:25:44;99739.72;;;9.61;100.00
70781;BME280;59514;48.810;2.134;2023-03-22T07:28:10;99724.34;;;9.68;100.00
70781;BME280;59514;48.810;2.134;2023-03-22T07:30:37;99741.94;;;9.64;100.00
70781;BME280;59514;48.810;2.134;2023-03-22T07:33:07;99731.91;;;9.71;100.00
70781;BME280;59514;48.810;2.134;2023-03-22T07:35:32;99738.56;;;9.68;100.00
70781;BME280;59514;48.810;2.134;2023-03-22T07:37:58;99737.16;;;9.66;100.00
70781;BME280;59514;48.810;2.134;2023-03-22T07:40:25;99743.56;;;9.65;100.00
70781;BME280;59514;48.810;2.134;2023-03-22T07:42:51;99737.16;;;9.66;100.00
70781;BME280;59514;48.810;2.134;2023-03-22T07:45:18;99747.53;;;9.62;100.00
70781;BME280;59514;48.810;2.134;2023-03-22T07:47:44;99749.63;;;9.60;100.00
70781;BME280;59514;48.810;2.134;2023-03-22T07:50:09;99753.25;;;9.66;100.00
70781;BME280;59514;48.810;2.134;2023-03-22T07:52:41;99747.06;;;9.65;100.00
70781;BME280;59514;48.810;2.134;2023-03-22T07:55:08;99752.31;;;9.72;100.00
70781;BME280;59514;48.810;2.134;2023-03-22T07:57:35;99751.47;;;9.71;100.00
70781;BME280;59514;48.810;2.134;2023-03-22T08:00:00;99746.13;;;9.71;100.00
70781;BME280;59514;48.810;2.134;2023-03-22T08:02:25;99750.78;;;9.76;100.00
70781;BME280;59514;48.810;2.134;2023-03-22T08:04:51;99749.28;;;9.80;100.00
70781;BME280;59514;48.810;2.134;2023-03-22T08:07:17;99751.84;;;9.86;100.00
70781;BME280;59514;48.810;2.134;2023-03-22T08:09:43;99755.31;;;9.87;100.00
70781;BME280;59514;48.810;2.134;2023-03-22T08:12:09;99751.59;;;9.88;100.00
70781;BME280;59514;48.810;2.134;2023-03-22T08:14:35;99762.31;;;9.88;100.00
70781;BME280;59514;48.810;2.134;2023-03-22T08:17:02;99759.72;;;9.93;100.00
70781;BME280;59514;48.810;2.134;2023-03-22T08:19:28;99746.84;;;9.78;100.00
70781;BME280;59514;48.810;2.134;2023-03-22T08:21:53;99761.50;;;9.76;100.00
70781;BME280;59514;48.810;2.134;2023-03-22T08:24:18;99758.34;;;9.79;100.00
70781;BME280;59514;48.810;2.134;2023-03-22T08:26:43;99754.50;;;9.75;100.00
70781;BME280;59514;48.810;2.134;2023-03-22T08:29:10;99750.22;;;9.74;100.00
70781;BME280;59514;48.810;2.134;2023-03-22T08:31:35;99747.63;;;9.79;100.00
70781;BME280;59514;48.810;2.134;2023-03-22T08:34:01;99754.28;;;9.76;100.00
70781;BME280;59514;48.810;2.134;2023-03-22T08:36:26;99757.09;;;9.70;100.00
70781;BME280;59514;48.810;2.134;2023-03-22T08:38:53;99755.56;;;9.74;100.00
70781;BME280;59514;48.810;2.134;2023-03-22T08:41:18;99746.94;;;9.72;100.00
70781;BME280;59514;48.810;2.134;2023-03-22T08:43:43;99771.66;;;9.74;100.00
70781;BME280;59514;48.810;2.134;2023-03-22T08:46:09;99732.28;;;9.74;100.00
70781;BME280;59514;48.810;2.134;2023-03-22T08:48:34;99736.56;;;9.75;100.00
70781;BME280;59514;48.810;2.134;2023-03-22T08:51:03;99738.09;;;9.71;100.00
70781;BME280;59514;48.810;2.134;2023-03-22T08:53:30;99738.66;;;9.73;100.00
70781;BME280;59514;48.810;2.134;2023-03-22T08:55:55;99727.50;;;9.76;100.00
70781;BME280;59514;48.810;2.134;2023-03-22T08:58:22;99725.00;;;9.75;100.00
70781;BME280;59514;48.810;2.134;2023-03-22T09:00:48;99735.75;;;9.75;100.00
70781;BME280;59514;48.810;2.134;2023-03-22T09:03:13;99747.78;;;9.72;100.00
70781;BME280;59514;48.810;2.134;2023-03-22T09:05:40;99720.13;;;9.72;100.00
70781;BME280;59514;48.810;2.134;2023-03-22T09:08:05;99719.91;;;9.73;100.00
70781;BME280;59514;48.810;2.134;2023-03-22T09:10:31;99737.13;;;9.77;100.00
70781;BME280;59514;48.810;2.134;2023-03-22T09:12:56;99728.28;;;9.77;100.00
70781;BME280;59514;48.810;2.134;2023-03-22T09:15:22;99728.84;;;9.79;100.00
70781;BME280;59514;48.810;2.134;2023-03-22T09:17:47;99737.72;;;9.79;100.00
70781;BME280;59514;48.810;2.134;2023-03-22T09:20:13;99725.72;;;9.82;100.00
70781;BME280;59514;48.810;2.134;2023-03-22T09:22:38;99735.38;;;9.83;100.00
70781;BME280;59514;48.810;2.134;2023-03-22T17:22:15;99420.41;;;13.42;73.97
70781;BME280;59514;48.810;2.134;2023-03-22T17:24:41;99453.53;;;13.37;74.21
70781;BME280;59514;48.810;2.134;2023-03-22T17:27:08;99416.06;;;13.36;75.15
70781;BME280;59514;48.810;2.134;2023-03-22T17:29:35;99454.59;;;13.36;74.87
70781;BME280;59514;48.810;2.134;2023-03-22T17:32:03;99416.06;;;13.36;74.67
70781;BME280;59514;48.810;2.134;2023-03-22T17:34:29;99427.63;;;13.36;74.63
70781;BME280;59514;48.810;2.134;2023-03-22T17:36:55;99424.69;;;13.38;74.50
70781;BME280;59514;48.810;2.134;2023-03-22T17:39:20;99419.81;;;13.35;74.54
70781;BME280;59514;48.810;2.134;2023-03-22T17:41:46;99416.56;;;13.33;75.45
70781;BME280;59514;48.810;2.134;2023-03-22T17:44:12;99411.72;;;13.30;76.01
70781;BME280;59514;48.810;2.134;2023-03-22T17:46:37;99421.97;;;13.28;76.64
70781;BME280;59514;48.810;2.134;2023-03-22T17:49:02;99407.94;;;13.26;76.65
70781;BME280;59514;48.810;2.134;2023-03-22T17:51:28;99429.25;;;13.27;77.19
70781;BME280;59514;48.810;2.134;2023-03-22T17:53:54;99418.19;;;13.24;77.65
70781;BME280;59514;48.810;2.134;2023-03-22T17:56:20;99412.78;;;13.24;77.68
70781;BME280;59514;48.810;2.134;2023-03-22T17:58:45;99417.38;;;13.23;78.57
70781;BME280;59514;48.810;2.134;2023-03-22T18:01:12;99432.44;;;13.19;78.77
70781;BME280;59514;48.810;2.134;2023-03-22T18:03:37;99405.22;;;13.16;79.20
70781;BME280;59514;48.810;2.134;2023-03-22T18:06:03;99410.06;;;13.14;80.15
70781;BME280;59514;48.810;2.134;2023-03-22T18:08:28;99398.75;;;13.12;80.65
70781;BME280;59514;48.810;2.134;2023-03-22T18:10:54;99406.81;;;13.12;80.76
70781;BME280;59514;48.810;2.134;2023-03-22T18:13:20;99387.41;;;13.15;81.19
70781;BME280;59514;48.810;2.134;2023-03-22T18:15:45;99399.56;;;13.12;81.98
70781;BME280;59514;48.810;2.134;2023-03-22T18:18:10;99394.97;;;13.13;81.86
70781;BME280;59514;48.810;2.134;2023-03-22T18:20:36;99401.16;;;13.13;82.75
70781;BME280;59514;48.810;2.134;2023-03-22T18:23:01;99404.94;;;13.12;83.15
70781;BME280;59514;48.810;2.134;2023-03-22T18:25:27;99424.88;;;13.11;83.59
70781;BME280;59514;48.810;2.134;2023-03-22T18:27:52;99422.44;;;13.10;84.18
70781;BME280;59514;48.810;2.134;2023-03-22T18:30:21;99416.25;;;13.09;84.76
70781;BME280;59514;48.810;2.134;2023-03-22T18:32:47;99413.81;;;13.08;84.74
70781;BME280;59514;48.810;2.134;2023-03-22T18:35:13;99415.97;;;13.06;85.61
70781;BME280;59514;48.810;2.134;2023-03-22T18:37:39;99404.66;;;13.09;85.45
70781;BME280;59514;48.810;2.134;2023-03-22T18:40:07;99405.19;;;13.06;85.98
70781;BME280;59514;48.810;2.134;2023-03-22T18:42:34;99410.03;;;13.09;86.08
70781;BME280;59514;48.810;2.134;2023-03-22T18:45:00;99413.81;;;13.08;86.11
70781;BME280;59514;48.810;2.134;2023-03-22T18:47:26;99427.31;;;13.13;86.54
70781;BME280;59514;48.810;2.134;2023-03-22T18:49:51;99416.78;;;13.11;87.15
70781;BME280;59514;48.810;2.134;2023-03-22T18:52:16;99418.66;;;13.11;87.32
70781;BME280;59514;48.810;2.134;2023-03-22T18:54:41;99418.66;;;13.11;86.63
70781;BME280;59514;48.810;2.134;2023-03-22T18:57:07;99411.13;;;13.13;87.34
70781;BME280;59514;48.810;2.134;2023-03-22T18:59:32;99411.13;;;13.13;87.62
70781;BME280;59514;48.810;2.134;2023-03-22T19:01:58;99401.44;;;13.17;87.69
70781;BME280;59514;48.810;2.134;2023-03-22T19:04:24;99397.13;;;13.16;87.81
70781;BME280;59514;48.810;2.134;2023-03-22T19:06:50;99390.41;;;13.18;87.61
70781;BME280;59514;48.810;2.134;2023-03-22T19:09:15;99396.34;;;13.20;86.50
70781;BME280;59514;48.810;2.134;2023-03-22T19:11:41;99397.41;;;13.19;87.02
70781;BME280;59514;48.810;2.134;2023-03-22T19:14:06;99398.75;;;13.17;87.38
70781;BME280;59514;48.810;2.134;2023-03-22T19:16:36;99402.25;;;13.17;87.68
70781;BME280;59514;48.810;2.134;2023-03-22T19:19:02;99411.72;;;13.20;87.58
70781;BME280;59514;48.810;2.134;2023-03-22T19:21:28;99408.47;;;13.23;86.62
70781;BME280;59514;48.810;2.134;2023-03-22T19:23:54;99378.28;;;13.21;87.50
70781;BME280;59514;48.810;2.134;2023-03-22T19:26:22;99379.09;;;13.21;87.39
70781;BME280;59514;48.810;2.134;2023-03-22T19:28:47;99372.34;;;13.19;88.17
70781;BME280;59514;48.810;2.134;2023-03-22T19:31:13;99376.13;;;13.18;87.91
70781;BME280;59514;48.810;2.134;2023-03-22T19:33:38;99389.06;;;13.21;87.35
70781;BME280;59514;48.810;2.134;2023-03-22T19:36:03;99364.78;;;13.21;87.06
70781;BME280;59514;48.810;2.134;2023-03-22T19:38:29;99383.13;;;13.19;87.10
70781;BME280;59514;48.810;2.134;2023-03-22T19:41:02;99369.09;;;13.17;87.82
70781;BME280;59514;48.810;2.134;2023-03-22T19:43:35;99371.25;;;13.15;87.66
70781;BME280;59514;48.810;2.134;2023-03-22T19:46:02;99370.47;;;13.14;88.55
70781;BME280;59514;48.810;2.134;2023-03-22T19:48:27;99381.50;;;13.18;87.89
70781;BME280;59514;48.810;2.134;2023-03-22T19:50:53;99376.63;;;13.15;88.38
70781;BME280;59514;48.810;2.134;2023-03-22T19:53:20;99376.09;;;13.13;88.79
70781;BME280;59514;48.810;2.134;2023-03-22T19:55:45;99386.31;;;13.11;88.39
70781;BME280;59514;48.810;2.134;2023-03-22T19:58:11;99371.25;;;13.15;87.15
70781;BME280;59514;48.810;2.134;2023-03-22T20:00:36;99370.47;;;13.14;87.31
70781;BME280;59514;48.810;2.134;2023-03-22T20:03:01;99371.53;;;13.13;87.28
70781;BME280;59514;48.810;2.134;2023-03-22T20:05:27;99369.09;;;13.17;86.52
70781;BME280;59514;48.810;2.134;2023-03-22T20:07:53;99382.84;;;13.15;87.00
70781;BME280;59514;48.810;2.134;2023-03-22T20:10:19;99384.47;;;13.16;86.44
70781;BME280;59514;48.810;2.134;2023-03-22T20:12:45;99390.41;;;13.18;85.74
70781;BME280;59514;48.810;2.134;2023-03-22T20:15:11;99372.88;;;13.16;85.44
70781;BME280;59514;48.810;2.134;2023-03-22T20:17:37;99375.56;;;13.16;86.14
70781;BME280;59514;48.810;2.134;2023-03-22T20:20:07;99393.63;;;13.15;85.43
70781;BME280;59514;48.810;2.134;2023-03-22T20:22:34;99376.13;;;13.18;84.44
70781;BME280;59514;48.810;2.134;2023-03-22T20:25:00;99393.34;;;13.17;84.79
70781;BME280;59514;48.810;2.134;2023-03-22T20:27:26;99366.41;;;13.17;85.11
70781;BME280;59514;48.810;2.134;2023-03-22T20:29:51;99383.66;;;13.16;85.05
70781;BME280;59514;48.810;2.134;2023-03-22T20:32:16;99375.03;;;13.14;84.52
70781;BME280;59514;48.810;2.134;2023-03-22T20:34:42;99380.94;;;13.11;85.30
70781;BME280;59514;48.810;2.134;2023-03-22T20:37:07;99415.97;;;13.11;85.21
70781;BME280;59514;48.810;2.134;2023-03-22T20:39:34;99389.56;;;13.13;84.68
70781;BME280;59514;48.810;2.134;2023-03-22T20:42:00;99379.06;;;13.11;84.71
70781;BME280;59514;48.810;2.134;2023-03-22T20:44:26;99383.09;;;13.09;85.24
70781;BME280;59514;48.810;2.134;2023-03-22T20:46:51;99391.44;;;13.07;85.28
70781;BME280;59514;48.810;2.134;2023-03-22T20:49:17;99379.84;;;13.07;85.90
70781;BME280;59514;48.810;2.134;2023-03-22T20:51:42;99380.63;;;13.02;86.21
70781;BME280;59514;48.810;2.134;2023-03-22T20:54:07;99407.28;;;12.98;86.16
70781;BME280;59514;48.810;2.134;2023-03-22T20:56:32;99380.88;;;12.95;86.56
70781;BME280;59514;48.810;2.134;2023-03-22T20:58:58;99400.78;;;12.94;86.65
70781;BME280;59514;48.810;2.134;2023-03-22T21:01:25;99389.47;;;12.92;86.90
70781;BME280;59514;48.810;2.134;2023-03-22T21:03:50;99384.34;;;12.91;86.75
70781;BME280;59514;48.810;2.134;2023-03-22T21:06:16;99399.16;;;12.88;86.93
70781;BME280;59514;48.810;2.134;2023-03-22T21:08:41;99395.94;;;12.86;87.43
70781;BME280;59514;48.810;2.134;2023-03-22T21:11:11;99389.47;;;12.82;87.57
70781;BME280;59514;48.810;2.134;2023-03-22T21:13:38;99398.59;;;12.81;87.89
70781;BME280;59514;48.810;2.134;2023-03-22T21:18:47;99376.19;;;12.71;89.76
70781;BME280;59514;48.810;2.134;2023-03-22T21:21:13;99386.63;;;12.57;92.07
70781;BME280;59514;48.810;2.134;2023-03-22T21:23:38;99358.84;;;12.47;93.77
70781;BME280;59514;48.810;2.134;2023-03-22T21:26:04;99376.84;;;12.36;96.31
70781;BME280;59514;48.810;2.134;2023-03-22T21:28:30;99351.22;;;12.29;97.11
70781;BME280;59514;48.810;2.134;2023-03-22T21:30:57;99374.03;;;12.21;98.80